Time;durP1;ratioP1;P1;durP2;ratioP2;P2;SDS_P1;SDS_P2;PMS_P1;PMS_P2;Temp;Humidity;BMP_temperature;BMP_pressure;BME280_temperature;BME280_humidity;BME280_pressure;Samples;Min_cycle;Max_cycle;Signal;HPM_P1;HPM_P2
2022/10/04 00:00:37;;;;;;;8.90;4.03;;;;;;;5.01;100.00;97056.47;4998344;28;20041;-72
2022/10/04 00:03:16;;;;;;;11.40;4.23;;;;;;;4.94;100.00;97056.88;5019534;28;20117;-72
2022/10/04 00:05:49;;;;;;;14.43;4.63;;;;;;;4.95;100.00;97048.13;5009073;28;20034;-72
2022/10/04 00:08:25;;;;;;;9.45;4.43;;;;;;;4.96;100.00;97047.22;5014653;28;20383;-72
2022/10/04 00:11:01;;;;;;;11.87;4.47;;;;;;;4.89;100.00;97045.94;5019316;28;20037;-72
2022/10/04 00:13:28;;;;;;;8.87;4.93;;;;;;;4.89;100.00;97043.31;5008603;28;20038;-72
2022/10/04 00:15:54;;;;;;;11.07;4.60;;;;;;;4.83;100.00;97041.16;5015647;28;20041;-72
2022/10/04 00:18:20;;;;;;;11.40;4.73;;;;;;;4.82;100.00;97042.06;5018204;28;20026;-72
2022/10/04 00:20:54;;;;;;;9.27;5.77;;;;;;;4.78;100.00;97034.56;5009422;28;20129;-71
2022/10/04 00:23:27;;;;;;;10.87;4.97;;;;;;;4.77;100.00;97032.91;5006495;28;20025;-73
2022/10/04 00:25:54;;;;;;;7.78;3.63;;;;;;;4.73;100.00;97032.28;5009182;28;20025;-72
2022/10/04 00:28:19;;;;;;;11.43;4.50;;;;;;;4.77;100.00;97022.50;5023679;28;20391;-72
2022/10/04 00:31:10;;;;;;;11.97;5.73;;;;;;;4.73;100.00;97029.69;5021147;28;20040;-72
2022/10/04 00:33:39;;;;;;;11.47;4.60;;;;;;;4.68;100.00;97019.56;5025235;28;20041;-71
2022/10/04 00:36:23;;;;;;;11.20;5.93;;;;;;;4.65;100.00;97013.72;5009485;28;20044;-72
2022/10/04 00:39:03;;;;;;;10.80;4.27;;;;;;;4.72;100.00;97017.56;5004719;28;20037;-72
2022/10/04 00:41:49;;;;;;;10.07;4.23;;;;;;;4.88;100.00;97013.00;5007546;28;20038;-72
2022/10/04 00:44:21;;;;;;;11.33;4.57;;;;;;;4.88;100.00;97009.56;5011060;28;20474;-72
2022/10/04 00:46:48;;;;;;;14.27;3.90;;;;;;;4.90;100.00;97003.31;4994086;28;20065;-72
2022/10/04 00:49:19;;;;;;;8.40;4.20;;;;;;;4.94;100.00;97004.75;5046700;28;20487;-72
2022/10/04 00:51:57;;;;;;;14.80;4.47;;;;;;;4.75;100.00;97004.34;5009851;28;20053;-71
2022/10/04 00:54:32;;;;;;;9.93;4.30;;;;;;;4.70;100.00;97006.44;5010724;28;20754;-72
2022/10/04 00:57:10;;;;;;;8.60;4.23;;;;;;;4.70;100.00;97003.84;5041958;28;20028;-72
2022/10/04 00:59:42;;;;;;;8.33;4.27;;;;;;;4.75;100.00;97012.16;5000538;28;20394;-72
2022/10/04 01:02:25;;;;;;;8.70;4.13;;;;;;;4.78;100.00;97009.34;5022217;28;20042;-72
2022/10/04 01:04:58;;;;;;;9.13;4.32;;;;;;;4.81;100.00;96998.72;4993543;28;20042;-71
2022/10/04 01:07:40;;;;;;;9.15;3.75;;;;;;;4.70;100.00;96999.47;5011112;28;20055;-72
2022/10/04 01:10:29;;;;;;;7.93;4.00;;;;;;;4.66;100.00;96999.75;5017640;28;20048;-72
2022/10/04 01:12:59;;;;;;;10.67;4.30;;;;;;;4.63;100.00;97000.81;5017819;28;20036;-71
2022/10/04 01:15:48;;;;;;;12.37;4.10;;;;;;;4.66;100.00;96998.00;5019044;28;20126;-70
2022/10/04 01:18:34;;;;;;;11.20;5.17;;;;;;;4.68;100.00;96998.72;5031789;28;20065;-72
2022/10/04 01:21:15;;;;;;;11.90;6.00;;;;;;;4.70;100.00;97003.84;4990282;28;20037;-72
2022/10/04 01:23:48;;;;;;;11.27;6.07;;;;;;;4.63;100.00;96989.56;5011844;28;20037;-72
2022/10/04 01:26:28;;;;;;;11.20;7.35;;;;;;;4.56;100.00;96990.88;5000545;28;20033;-71
2022/10/04 01:28:58;;;;;;;10.60;5.80;;;;;;;4.62;100.00;96986.09;5010440;28;20041;-73
2022/10/04 01:31:25;;;;;;;10.87;5.37;;;;;;;4.61;100.00;96987.03;5016133;28;20065;-72
2022/10/04 01:33:51;;;;;;;9.17;5.53;;;;;;;4.58;100.00;96984.66;5030103;28;20030;-72
2022/10/04 01:36:17;;;;;;;11.07;6.30;;;;;;;4.59;100.00;96983.69;5005258;28;20386;-72
2022/10/04 01:38:43;;;;;;;11.50;4.77;;;;;;;4.58;100.00;96986.41;5015056;28;20048;-72
2022/10/04 01:41:11;;;;;;;10.37;6.17;;;;;;;4.58;100.00;96981.22;5014258;28;20029;-73
2022/10/04 01:43:41;;;;;;;11.00;5.30;;;;;;;4.57;100.00;96980.38;5019141;28;20045;-72
2022/10/04 01:46:12;;;;;;;11.87;5.70;;;;;;;4.56;100.00;96981.31;5015553;28;20052;-72
2022/10/04 01:48:43;;;;;;;9.93;5.10;;;;;;;4.40;100.00;96971.09;5000593;28;20041;-72
2022/10/04 01:51:25;;;;;;;7.07;4.47;;;;;;;4.40;100.00;96968.50;5002993;28;20114;-72
2022/10/04 01:54:06;;;;;;;9.07;4.30;;;;;;;4.38;100.00;96972.97;5009944;28;20033;-72
2022/10/04 01:56:55;;;;;;;11.07;5.07;;;;;;;4.33;100.00;96967.25;5031640;28;20044;-72
2022/10/04 01:59:30;;;;;;;9.33;4.53;;;;;;;4.38;100.00;96970.34;5044018;28;20948;-72
2022/10/04 02:02:05;;;;;;;10.17;5.00;;;;;;;4.43;100.00;96967.47;5013892;28;20034;-73
2022/10/04 02:04:37;;;;;;;11.97;4.77;;;;;;;4.47;100.00;96968.91;5040932;28;20038;-72
2022/10/04 02:07:11;;;;;;;11.40;6.10;;;;;;;4.43;100.00;96964.84;5009043;28;20103;-72
2022/10/04 02:09:42;;;;;;;8.77;5.00;;;;;;;4.48;100.00;96968.81;5017025;28;20121;-72
2022/10/04 02:12:13;;;;;;;8.10;4.50;;;;;;;4.47;100.00;96971.53;5008988;28;20038;-72
2022/10/04 02:14:45;;;;;;;7.83;4.63;;;;;;;4.46;100.00;96975.91;5010598;28;20683;-72
2022/10/04 02:17:11;;;;;;;10.00;4.90;;;;;;;4.45;100.00;96961.19;4990926;28;20038;-73
2022/10/04 02:19:41;;;;;;;8.10;4.20;;;;;;;4.34;100.00;96955.06;5006952;28;20044;-71
2022/10/04 02:22:18;;;;;;;7.93;4.80;;;;;;;4.33;100.00;96956.81;5012089;28;20029;-72
2022/10/04 02:24:47;;;;;;;8.27;4.20;;;;;;;4.28;100.00;96952.84;4985339;28;20030;-72
2022/10/04 02:27:13;;;;;;;10.57;4.17;;;;;;;4.25;100.00;96948.69;5010297;28;20061;-73
2022/10/04 02:29:39;;;;;;;9.00;4.10;;;;;;;4.25;100.00;96943.47;4998331;28;20025;-72
2022/10/04 02:34:53;;;;;;;8.43;3.83;;;;;;;4.19;100.00;96939.53;5018627;28;20088;-72
2022/10/04 02:37:22;;;;;;;7.87;3.90;;;;;;;4.23;100.00;96934.94;5001111;28;20403;-72
2022/10/04 02:40:11;;;;;;;9.17;4.20;;;;;;;4.21;100.00;96940.25;5013445;28;20103;-72
2022/10/04 02:42:43;;;;;;;12.30;4.73;;;;;;;4.13;100.00;96939.09;4994495;28;20038;-72
2022/10/04 02:45:34;;;;;;;10.17;5.63;;;;;;;4.10;100.00;96941.91;5018229;28;20026;-72
2022/10/04 02:48:10;;;;;;;8.97;5.37;;;;;;;4.17;100.00;96945.78;5021935;28;20040;-72
2022/10/04 02:50:49;;;;;;;9.97;4.77;;;;;;;4.10;100.00;96945.34;5022812;28;20029;-72
2022/10/04 02:53:29;;;;;;;11.33;5.70;;;;;;;4.09;100.00;96938.47;5019531;28;20030;-71
2022/10/04 02:55:56;;;;;;;7.43;4.60;;;;;;;4.08;100.00;96946.38;5020248;28;20116;-72
2022/10/04 02:58:24;;;;;;;9.27;5.33;;;;;;;4.11;100.00;96940.97;5025166;28;20509;-72
2022/10/04 03:00:59;;;;;;;12.77;4.70;;;;;;;4.11;100.00;96934.00;5017540;28;20379;-72
2022/10/04 03:03:30;;;;;;;9.37;5.20;;;;;;;4.13;100.00;96933.91;5029660;28;20061;-72
2022/10/04 03:05:56;;;;;;;7.87;4.57;;;;;;;4.13;100.00;96931.28;5017457;28;20044;-72
2022/10/04 03:08:22;;;;;;;10.17;4.23;;;;;;;4.07;100.00;96931.69;5020262;28;20033;-72
2022/10/04 03:10:49;;;;;;;9.53;4.37;;;;;;;4.00;100.00;96923.47;5007153;28;20032;-72
2022/10/04 03:13:17;;;;;;;8.17;3.87;;;;;;;4.04;100.00;96934.50;5020359;28;20032;-72
2022/10/04 03:15:45;;;;;;;8.57;3.80;;;;;;;4.04;100.00;96919.72;4997053;28;20109;-72
2022/10/04 03:18:12;;;;;;;11.13;4.37;;;;;;;4.09;100.00;96922.00;5023896;28;20037;-72
2022/10/04 03:20:40;;;;;;;13.93;4.90;;;;;;;4.10;100.00;96921.09;5002935;28;20032;-72
2022/10/04 03:23:07;;;;;;;11.00;4.77;;;;;;;4.08;100.00;96905.56;5018796;28;20391;-72
2022/10/04 03:25:51;;;;;;;11.57;5.37;;;;;;;4.11;100.00;96901.91;5017464;28;20035;-72
2022/10/04 03:28:18;;;;;;;10.63;4.70;;;;;;;4.15;100.00;96898.16;5017888;28;20032;-72
2022/10/04 03:30:46;;;;;;;9.40;5.10;;;;;;;4.15;100.00;96901.59;5015138;28;20030;-72
2022/10/04 03:33:21;;;;;;;7.83;5.33;;;;;;;4.15;100.00;96903.38;5000325;28;20056;-72
2022/10/04 03:35:51;;;;;;;9.47;4.70;;;;;;;4.14;100.00;96894.75;4994800;28;20042;-72
2022/10/04 03:38:18;;;;;;;11.40;5.67;;;;;;;4.18;100.00;96896.19;5016775;28;20712;-72
2022/10/04 03:40:55;;;;;;;10.60;4.57;;;;;;;4.20;100.00;96894.34;5007991;28;20506;-72
2022/10/04 03:43:25;;;;;;;10.40;4.97;;;;;;;4.20;100.00;96898.72;5024797;28;20038;-72
2022/10/04 03:45:51;;;;;;;10.30;4.77;;;;;;;4.22;100.00;96897.66;5017406;28;20511;-71
2022/10/04 03:48:27;;;;;;;10.87;5.07;;;;;;;4.27;100.00;96899.97;4998782;28;20044;-71
2022/10/04 03:50:54;;;;;;;7.20;4.53;;;;;;;4.31;100.00;96904.00;5006744;28;20628;-71
2022/10/04 03:53:41;;;;;;;17.80;5.57;;;;;;;4.18;100.00;96913.59;4993384;28;20041;-72
2022/10/04 03:56:19;;;;;;;7.67;4.47;;;;;;;4.13;100.00;96916.50;5014398;28;20789;-72
2022/10/04 03:58:45;;;;;;;8.20;4.53;;;;;;;4.17;100.00;96919.75;4998599;28;20035;-71
2022/10/04 04:01:20;;;;;;;11.17;4.37;;;;;;;4.08;100.00;96928.97;5015780;28;20128;-72
2022/10/04 04:04:21;;;;;;;9.60;4.80;;;;;;;4.11;100.00;96931.38;5007915;28;20026;-72
2022/10/04 04:07:07;;;;;;;11.30;4.83;;;;;;;4.13;100.00;96933.91;5007060;28;20037;-72
2022/10/04 04:09:45;;;;;;;10.00;4.20;;;;;;;4.21;100.00;96936.81;5012496;28;20064;-72
2022/10/04 04:12:33;;;;;;;8.37;4.83;;;;;;;4.23;100.00;96914.94;5014010;28;20064;-72
2022/10/04 04:15:00;;;;;;;13.43;4.83;;;;;;;4.26;100.00;96913.91;5018617;28;20041;-72
2022/10/04 04:17:28;;;;;;;10.93;4.87;;;;;;;4.28;100.00;96922.44;5017179;28;20682;-72
2022/10/04 04:19:57;;;;;;;16.27;4.70;;;;;;;4.40;100.00;96918.19;5017379;28;20052;-71
2022/10/04 04:22:26;;;;;;;16.03;5.53;;;;;;;4.49;100.00;96925.34;5007065;28;20047;-73
2022/10/04 04:24:51;;;;;;;15.37;5.30;;;;;;;4.53;100.00;96920.75;5040702;28;20051;-72
2022/10/04 04:27:18;;;;;;;10.07;5.00;;;;;;;4.59;100.00;96925.56;5023794;28;20042;-72
2022/10/04 04:29:50;;;;;;;11.33;5.37;;;;;;;4.63;100.00;96940.06;5012334;28;20033;-72
2022/10/04 04:32:31;;;;;;;14.23;5.17;;;;;;;4.63;100.00;96935.69;5017379;28;20033;-72
2022/10/04 04:35:07;;;;;;;13.43;5.77;;;;;;;5.00;100.00;96924.47;5009414;28;20040;-72
2022/10/04 04:38:02;;;;;;;7.63;4.33;;;;;;;5.09;100.00;96918.59;5010860;28;20030;-72
2022/10/04 04:40:28;;;;;;;8.80;5.23;;;;;;;4.95;100.00;96930.81;5003748;28;20043;-73
2022/10/04 04:42:57;;;;;;;10.73;4.80;;;;;;;4.92;100.00;96911.97;4993620;28;20026;-73
2022/10/04 04:45:28;;;;;;;10.37;4.00;;;;;;;4.90;100.00;96917.31;4996196;28;20065;-73
2022/10/04 04:47:58;;;;;;;9.93;4.43;;;;;;;4.89;100.00;96913.00;4955752;28;20492;-73
2022/10/04 04:50:35;;;;;;;6.10;3.47;;;;;;;4.90;100.00;96906.06;4972661;28;20050;-73
2022/10/04 04:53:16;;;;;;;7.77;4.20;;;;;;;4.90;100.00;96903.44;4915862;28;20072;-71
2022/10/04 04:55:46;;;;;;;8.63;3.70;;;;;;;4.77;100.00;96905.25;4910113;28;20042;-71
2022/10/04 04:58:20;;;;;;;7.63;3.20;;;;;;;4.79;100.00;96905.94;4899002;28;20365;-71
2022/10/04 05:00:57;;;;;;;10.10;3.90;;;;;;;4.77;100.00;96903.47;4870609;28;20029;-72
2022/10/04 05:03:22;;;;;;;9.13;3.47;;;;;;;4.86;100.00;96905.44;4869150;28;23164;-72
2022/10/04 05:05:49;;;;;;;11.90;4.33;;;;;;;4.92;100.00;96907.59;4865466;28;20037;-74
2022/10/04 05:08:23;;;;;;;8.47;3.80;;;;;;;4.90;100.00;96909.47;4862687;28;20056;-72
2022/10/04 05:11:00;;;;;;;;;;;;;;;4.86;100.00;96908.03;4895799;28;20038;-73
2022/10/04 05:13:47;;;;;;;6.07;3.57;;;;;;;4.91;100.00;96902.50;4910362;28;19913;-74
2022/10/04 05:16:31;;;;;;;8.93;3.80;;;;;;;4.73;100.00;96913.28;4895782;28;20487;-72
2022/10/04 05:18:59;;;;;;;;;;;;;;;4.73;100.00;96902.84;4897458;28;20044;-71
2022/10/04 05:21:28;;;;;;;10.70;3.60;;;;;;;4.62;100.00;96909.72;4923943;28;19992;-73
2022/10/04 05:23:57;;;;;;;5.87;3.57;;;;;;;4.66;100.00;96895.53;4949000;28;20571;-74
2022/10/04 05:26:29;;;;;;;8.97;4.30;;;;;;;4.69;100.00;96900.53;4953510;28;20068;-71
2022/10/04 05:29:00;;;;;;;10.43;4.20;;;;;;;4.74;100.00;96908.88;4950798;28;20098;-73
2022/10/04 05:32:01;;;;;;;8.03;3.97;;;;;;;4.77;100.00;96898.25;4977382;28;20393;-74
2022/10/04 05:34:38;;;;;;;10.80;4.83;;;;;;;4.82;100.00;96901.34;4976916;28;20042;-72
2022/10/04 05:37:28;;;;;;;10.00;4.57;;;;;;;4.93;100.00;96904.06;4976293;28;20060;-73
2022/10/04 05:40:28;;;;;;;9.67;4.50;;;;;;;4.97;100.00;96899.47;4977353;28;20065;-71
2022/10/04 05:42:56;;;;;;;7.63;4.30;;;;;;;5.11;100.00;96903.69;4994017;28;20568;-72
2022/10/04 05:45:25;;;;;;;10.63;4.50;;;;;;;5.33;100.00;96902.97;4988130;28;20038;-73
2022/10/04 05:47:56;;;;;;;10.60;4.77;;;;;;;5.56;100.00;96901.31;5013913;28;20380;-74
2022/10/04 05:50:30;;;;;;;15.40;4.80;;;;;;;5.53;100.00;96901.53;5010138;28;20033;-73
2022/10/04 05:53:20;;;;;;;11.03;4.67;;;;;;;5.47;100.00;96905.44;4991733;28;20054;-74
2022/10/04 05:56:17;;;;;;;9.10;4.43;;;;;;;5.39;100.00;96899.94;4999837;28;20124;-74
2022/10/04 05:58:54;;;;;;;8.40;4.17;;;;;;;5.46;100.00;96900.31;5013490;28;20072;-74
2022/10/04 06:01:44;;;;;;;8.63;4.03;;;;;;;5.50;100.00;96913.06;4997250;28;20042;-74
2022/10/04 06:05:04;;;;;;;10.57;4.00;;;;;;;5.35;100.00;96906.31;5001741;28;20037;-74
2022/10/04 06:08:07;;;;;;;7.03;3.90;;;;;;;5.39;100.00;96916.41;5004091;28;20053;-74
2022/10/04 06:10:38;;;;;;;8.00;3.73;;;;;;;5.48;100.00;96914.94;5012769;28;20037;-74
2022/10/04 06:13:19;;;;;;;8.97;4.20;;;;;;;5.52;100.00;96907.72;5012826;28;20116;-74
2022/10/04 06:16:26;;;;;;;8.97;4.10;;;;;;;5.64;100.00;96909.44;4994294;28;20062;-74
2022/10/04 06:19:30;;;;;;;7.90;3.60;;;;;;;5.78;100.00;96926.69;5029687;28;20407;-74
2022/10/04 06:21:59;;;;;;;10.47;4.40;;;;;;;5.74;100.00;96940.91;5029903;28;20033;-73
2022/10/04 06:24:39;;;;;;;8.60;4.07;;;;;;;5.82;100.00;96939.38;5027208;28;20124;-73
2022/10/04 06:27:20;;;;;;;7.37;4.07;;;;;;;5.91;100.00;96933.50;5030852;28;20342;-72
2022/10/04 06:29:58;;;;;;;8.20;4.13;;;;;;;5.90;100.00;96936.22;5016177;28;20057;-73
2022/10/04 06:32:36;;;;;;;9.17;3.73;;;;;;;5.97;100.00;96937.47;5042978;28;20823;-72
2022/10/04 06:35:44;;;;;;;9.97;3.90;;;;;;;6.02;100.00;96930.13;5001691;28;20029;-74
2022/10/04 06:38:30;;;;;;;13.13;3.87;;;;;;;5.95;100.00;96931.53;5032025;28;20446;-75
2022/10/04 06:41:14;;;;;;;9.40;4.50;;;;;;;5.99;100.00;96930.34;5019660;28;20037;-73
2022/10/04 06:44:04;;;;;;;9.70;3.80;;;;;;;6.02;100.00;96929.28;5016711;28;20037;-74
2022/10/04 06:46:49;;;;;;;9.13;3.90;;;;;;;6.07;100.00;96938.47;5013942;28;20693;-73
2022/10/04 06:49:34;;;;;;;12.17;4.30;;;;;;;6.13;100.00;96935.38;5019412;28;20038;-73
2022/10/04 06:52:38;;;;;;;12.67;5.93;;;;;;;6.21;100.00;96942.66;5006214;28;20115;-74
2022/10/04 06:55:22;;;;;;;9.05;4.05;;;;;;;6.37;100.00;96942.31;5009100;28;20053;-74
2022/10/04 06:58:31;;;;;;;8.17;4.37;;;;;;;6.48;100.00;96938.91;5018468;28;20029;-74
2022/10/04 07:01:18;;;;;;;12.73;4.57;;;;;;;6.47;100.00;96940.69;5013567;28;20048;-74
2022/10/04 07:04:19;;;;;;;9.40;5.07;;;;;;;6.64;100.00;96939.41;5016618;28;20041;-73
2022/10/04 07:07:25;;;;;;;14.10;4.73;;;;;;;6.89;100.00;96942.72;5019843;28;20026;-72
2022/10/04 07:10:15;;;;;;;10.40;4.17;;;;;;;7.06;100.00;96948.31;5021500;28;20049;-73
2022/10/04 07:12:44;;;;;;;9.23;4.47;;;;;;;7.25;100.00;96937.25;5016704;28;20617;-74
2022/10/04 07:15:23;;;;;;;9.80;3.93;;;;;;;7.33;100.00;96944.47;5002105;28;20038;-75
2022/10/04 07:17:51;;;;;;;7.50;4.13;;;;;;;7.37;100.00;96945.06;5021144;28;20064;-73
2022/10/04 07:20:26;;;;;;;10.37;4.67;;;;;;;7.48;100.00;96937.22;5011709;28;20048;-74
2022/10/04 07:23:01;;;;;;;9.77;4.07;;;;;;;7.74;100.00;96943.75;5006788;28;20045;-74
2022/10/04 07:25:35;;;;;;;12.87;4.60;;;;;;;7.87;100.00;96943.59;5009524;28;20037;-74
2022/10/04 07:31:02;;;;;;;;;;;;;;;8.24;100.00;96936.16;5018840;28;20282;-74
2022/10/04 07:33:31;;;;;;;8.83;3.87;;;;;;;8.34;100.00;96938.84;5012635;28;20064;-74
2022/10/04 07:36:21;;;;;;;8.73;4.70;;;;;;;8.56;100.00;96935.31;5001711;28;20031;-74
2022/10/04 07:38:52;;;;;;;12.00;4.90;;;;;;;8.71;100.00;96936.63;5015709;28;20056;-74
2022/10/04 07:41:41;;;;;;;15.57;6.40;;;;;;;8.81;100.00;96922.72;5002105;28;20950;-74
2022/10/04 07:44:31;;;;;;;10.50;5.17;;;;;;;8.95;100.00;96927.63;5015951;28;20037;-74
2022/10/04 07:47:04;;;;;;;12.47;5.53;;;;;;;9.05;100.00;96927.66;5016851;28;20038;-74
2022/10/04 07:49:37;;;;;;;6.90;3.30;;;;;;;9.21;100.00;96915.69;5018864;28;20430;-73
2022/10/04 07:52:29;;;;;;;16.77;4.43;;;;;;;9.33;100.00;96929.56;5011606;28;20140;-74
2022/10/04 07:55:19;;;;;;;8.70;3.23;;;;;;;9.31;100.00;96925.41;5018064;28;20041;-74
2022/10/04 07:57:57;;;;;;;9.40;3.40;;;;;;;9.50;100.00;96920.19;4998416;28;20034;-73
2022/10/04 08:00:48;;;;;;;10.50;3.30;;;;;;;9.44;100.00;96920.72;4992334;28;20606;-75
2022/10/04 08:03:13;;;;;;;13.60;3.87;;;;;;;9.49;100.00;96915.91;5015261;28;20034;-74
2022/10/04 08:05:57;;;;;;;15.40;3.67;;;;;;;9.62;100.00;96921.75;4997731;28;20398;-74
2022/10/04 08:08:44;;;;;;;9.75;3.90;;;;;;;9.85;100.00;96929.34;5001672;28;20033;-74
2022/10/04 08:11:26;;;;;;;8.53;3.33;;;;;;;9.96;100.00;96931.84;5007125;28;20033;-74
2022/10/04 08:14:26;;;;;;;8.03;2.97;;;;;;;9.88;100.00;96923.81;5007747;28;20125;-74
2022/10/04 08:17:10;;;;;;;8.03;3.10;;;;;;;9.78;100.00;96920.34;5015606;28;20049;-74
2022/10/04 08:20:11;;;;;;;9.03;3.00;;;;;;;9.85;100.00;96924.09;5012003;28;20026;-74
2022/10/04 08:22:58;;;;;;;9.10;3.10;;;;;;;9.91;100.00;96915.66;5002948;28;20074;-75
2022/10/04 08:25:49;;;;;;;5.70;2.67;;;;;;;9.87;100.00;96911.66;4999121;28;20502;-74
2022/10/04 08:31:25;;;;;;;8.57;4.07;;;;;;;10.03;100.00;96909.31;5018664;28;20033;-74
2022/10/04 08:34:20;;;;;;;12.30;3.47;;;;;;;10.12;100.00;96905.00;5013796;28;20040;-75
2022/10/04 08:37:14;;;;;;;10.93;2.93;;;;;;;10.42;100.00;96904.00;5008985;28;20112;-73
2022/10/04 08:40:18;;;;;;;8.93;3.40;;;;;;;10.23;100.00;96906.63;4996252;28;20033;-74
2022/10/04 08:42:49;;;;;;;12.35;3.55;;;;;;;10.30;100.00;96905.16;5014569;28;20111;-74
2022/10/04 08:45:51;;;;;;;10.63;2.77;;;;;;;10.20;100.00;96906.94;5014643;28;20116;-74
2022/10/04 08:48:46;;;;;;;10.50;3.37;;;;;;;10.18;100.00;96912.31;5006340;28;20694;-74
2022/10/04 08:51:27;;;;;;;5.83;2.60;;;;;;;10.28;100.00;96904.47;5021951;28;20041;-73
2022/10/04 08:54:23;;;;;;;5.63;2.10;;;;;;;10.33;100.00;96904.88;5005424;28;20044;-74
2022/10/04 08:57:18;;;;;;;7.90;2.37;;;;;;;10.37;100.00;96906.25;5006107;28;20092;-74
2022/10/04 09:00:05;;;;;;;10.20;2.93;;;;;;;10.48;100.00;96897.38;5009051;28;20034;-73
2022/10/04 09:02:31;;;;;;;9.47;2.50;;;;;;;10.77;100.00;96889.41;5015468;28;20092;-74
2022/10/04 09:05:17;;;;;;;7.30;3.07;;;;;;;11.07;100.00;96886.50;5000913;28;20052;-74
2022/10/04 09:07:56;;;;;;;8.13;2.37;;;;;;;11.38;100.00;96873.00;5018097;28;20038;-74
2022/10/04 09:10:41;;;;;;;6.83;2.00;;;;;;;11.39;100.00;96885.19;5007349;28;20033;-74
2022/10/04 09:13:22;;;;;;;4.57;2.20;;;;;;;11.90;100.00;96889.00;5017023;28;20040;-74
2022/10/04 09:16:02;;;;;;;5.60;2.00;;;;;;;11.79;100.00;96889.22;5018982;28;20047;-74
2022/10/04 09:19:10;;;;;;;7.43;2.20;;;;;;;12.01;100.00;96886.16;4989661;28;20034;-73
2022/10/04 09:21:57;;;;;;;10.03;2.33;;;;;;;12.30;100.00;96882.41;5005001;28;20037;-75
2022/10/04 09:25:21;;;;;;;11.40;2.40;;;;;;;12.21;100.00;96884.19;5003208;28;20561;-74
2022/10/04 09:27:47;;;;;;;8.23;2.25;;;;;;;12.45;100.00;96882.69;5009207;28;20053;-74
2022/10/04 09:30:23;;;;;;;6.53;2.10;;;;;;;12.08;100.00;96883.75;5027656;28;20045;-74
2022/10/04 09:33:15;;;;;;;5.90;2.03;;;;;;;13.30;100.00;96867.78;5016881;28;20033;-75
2022/10/04 09:35:52;;;;;;;6.13;1.77;;;;;;;14.16;100.00;96874.50;4987685;28;20038;-74
2022/10/04 09:38:55;;;;;;;7.90;2.20;;;;;;;13.96;100.00;96878.47;5034981;28;20131;-75
2022/10/04 09:42:04;;;;;;;9.10;2.60;;;;;;;13.90;100.00;96878.13;5004132;28;20037;-74
2022/10/04 09:44:37;;;;;;;5.57;1.90;;;;;;;13.67;100.00;96879.75;5009096;28;20040;-73
2022/10/04 09:47:36;;;;;;;5.97;1.90;;;;;;;13.71;100.00;96874.97;4994686;28;20046;-74
2022/10/04 09:50:36;;;;;;;7.07;2.13;;;;;;;13.75;100.00;96877.13;5003171;28;21246;-74
2022/10/04 09:53:39;;;;;;;8.20;2.10;;;;;;;13.12;100.00;96874.97;5021346;28;20030;-74
2022/10/04 09:56:09;;;;;;;4.53;1.45;;;;;;;14.18;100.00;96869.03;4985469;28;20519;-74
2022/10/04 09:58:53;;;;;;;6.87;2.07;;;;;;;14.09;100.00;96868.22;4990290;28;20041;-74
2022/10/04 10:01:50;;;;;;;7.10;2.13;;;;;;;14.73;100.00;96863.88;4991174;28;20113;-74
2022/10/04 10:04:39;;;;;;;6.38;1.95;;;;;;;15.49;100.00;96861.56;4990672;28;20419;-74
2022/10/04 10:07:23;;;;;;;6.57;1.60;;;;;;;15.60;100.00;96863.81;4990597;28;20125;-74
2022/10/04 10:13:42;;;;;;;9.25;2.13;;;;;;;14.59;100.00;96873.34;4991882;28;20230;-75
2022/10/04 10:16:39;;;;;;;4.38;1.65;;;;;;;15.91;100.00;96868.28;4985143;28;20054;-74
2022/10/04 10:19:42;;;;;;;7.00;2.03;;;;;;;16.18;100.00;96866.91;4985248;28;20121;-74
2022/10/04 10:22:27;;;;;;;6.50;1.70;;;;;;;15.50;100.00;96874.66;4983422;28;20038;-75
2022/10/04 10:25:16;;;;;;;5.72;1.73;;;;;;;16.68;100.00;96873.41;4999066;28;20553;-75
2022/10/04 10:28:06;;;;;;;5.88;1.70;;;;;;;16.85;100.00;96871.44;4984388;28;20065;-74
2022/10/04 10:31:02;;;;;;;5.07;1.60;;;;;;;17.38;100.00;96874.78;5001750;28;20030;-73
2022/10/04 10:34:10;;;;;;;5.55;1.73;;;;;;;17.30;98.84;96872.22;5001988;28;20038;-75
2022/10/04 10:36:45;;;;;;;4.68;1.60;;;;;;;17.30;100.00;96877.53;5010671;28;20551;-74
2022/10/04 10:39:30;;;;;;;6.95;1.85;;;;;;;16.36;100.00;96875.38;4999965;28;20036;-75
2022/10/04 10:42:16;;;;;;;7.35;1.70;;;;;;;16.81;100.00;96867.50;5000076;28;20038;-75
2022/10/04 10:45:00;;;;;;;6.93;1.80;;;;;;;16.39;100.00;96868.88;5024672;28;20091;-75
2022/10/04 10:47:58;;;;;;;5.25;1.90;;;;;;;16.36;100.00;96869.22;5009819;28;20040;-75
2022/10/04 10:50:58;;;;;;;5.80;2.03;;;;;;;16.49;100.00;96864.13;5010964;28;20484;-75
2022/10/04 10:53:59;;;;;;;6.00;2.00;;;;;;;16.11;100.00;96868.63;5004675;28;20038;-75
2022/10/04 10:56:30;;;;;;;8.55;2.38;;;;;;;15.92;100.00;96859.31;5010189;28;20112;-75
2022/10/04 10:59:35;;;;;;;5.18;2.35;;;;;;;16.18;100.00;96857.13;4998444;28;20068;-74
2022/10/04 11:02:23;;;;;;;6.43;1.90;;;;;;;16.92;100.00;96851.09;4969059;28;20046;-74
2022/10/04 11:05:01;;;;;;;7.00;1.90;;;;;;;16.91;100.00;96852.13;4988929;28;20033;-75
2022/10/04 11:07:51;;;;;;;5.63;1.67;;;;;;;17.42;100.00;96839.66;4971510;28;20044;-75
2022/10/04 11:10:30;;;;;;;5.55;1.88;;;;;;;16.87;100.00;96845.53;4960474;28;20755;-75
2022/10/04 11:13:17;;;;;;;5.25;1.92;;;;;;;16.95;99.83;96840.09;4970512;28;20041;-74
2022/10/04 11:16:00;;;;;;;6.68;2.28;;;;;;;16.80;100.00;96839.28;4987344;28;20030;-74
2022/10/04 11:19:02;;;;;;;6.25;2.03;;;;;;;17.34;100.00;96831.00;4971979;28;20036;-75
2022/10/04 11:21:50;;;;;;;3.77;1.50;;;;;;;17.40;94.91;96839.03;4972355;28;20037;-75
2022/10/04 11:24:54;;;;;;;5.90;2.08;;;;;;;18.31;92.13;96835.84;5000674;28;20076;-74
2022/10/04 11:27:27;;;;;;;5.18;1.70;;;;;;;18.27;92.36;96834.56;5033062;28;20397;-75
2022/10/04 11:30:08;;;;;;;5.38;1.75;;;;;;;18.88;88.65;96824.16;5008819;28;20148;-75
2022/10/04 11:33:08;;;;;;;5.15;1.90;;;;;;;19.42;79.74;96828.69;4990447;28;20127;-76
2022/10/04 11:35:54;;;;;;;5.25;1.65;;;;;;;17.65;90.38;96828.88;4994671;28;20235;-75
2022/10/04 11:38:49;;;;;;;4.65;2.15;;;;;;;17.14;96.40;96841.38;4998171;28;20034;-75
2022/10/04 11:41:33;;;;;;;3.15;1.52;;;;;;;16.64;100.00;96840.28;4985086;28;20108;-74
2022/10/04 11:44:29;;;;;;;4.75;1.65;;;;;;;17.36;90.97;96835.09;4987034;28;20470;-73
2022/10/04 11:47:21;;;;;;;7.55;1.85;;;;;;;18.18;95.16;96817.94;4986772;28;20116;-75
2022/10/04 11:50:02;;;;;;;6.90;1.63;;;;;;;18.27;85.89;96815.94;5016578;28;20042;-75
2022/10/04 11:53:14;;;;;;;6.53;1.80;;;;;;;18.56;85.26;96804.25;5008011;28;20093;-74
2022/10/04 11:55:52;;;;;;;5.22;2.00;;;;;;;18.97;87.97;96800.81;4915304;28;20057;-75
2022/10/04 11:58:24;;;;;;;6.55;2.08;;;;;;;18.44;86.09;96814.63;4964721;28;20060;-75
2022/10/04 12:01:29;;;;;;;6.53;1.73;;;;;;;18.15;87.26;96802.34;4979974;28;20041;-75
2022/10/04 12:04:20;;;;;;;5.47;2.10;;;;;;;18.00;91.10;96807.72;4979431;28;20121;-73
2022/10/04 12:07:15;;;;;;;5.85;1.92;;;;;;;18.40;90.63;96802.72;4962337;28;20057;-74
2022/10/04 12:10:02;;;;;;;7.97;2.00;;;;;;;18.97;87.89;96785.63;4911175;28;20095;-74
2022/10/04 12:13:06;;;;;;;4.05;1.65;;;;;;;19.03;83.89;96790.19;4926724;28;20041;-73
2022/10/04 12:15:57;;;;;;;8.32;2.03;;;;;;;17.76;94.16;96786.81;4917959;28;20142;-73
2022/10/04 12:18:47;;;;;;;6.90;1.95;;;;;;;18.29;91.62;96781.97;4947770;28;20052;-74
2022/10/04 12:21:49;;;;;;;6.50;2.20;;;;;;;18.20;90.38;96773.28;4932917;28;20116;-73
2022/10/04 12:24:41;;;;;;;3.67;1.80;;;;;;;17.87;97.09;96776.53;4967549;28;20062;-73
2022/10/04 12:27:25;;;;;;;5.78;1.77;;;;;;;17.72;94.70;96772.25;4988422;28;20122;-75
2022/10/04 12:30:01;;;;;;;4.22;1.60;;;;;;;18.78;88.75;96765.91;4979436;28;20058;-72
2022/10/04 12:33:04;;;;;;;7.20;2.22;;;;;;;18.28;94.90;96772.34;4990525;28;20180;-74
2022/10/04 12:35:58;;;;;;;7.78;1.95;;;;;;;18.59;91.71;96761.25;4983162;28;20384;-74
2022/10/04 12:38:42;;;;;;;6.22;1.98;;;;;;;19.15;88.06;96755.78;4997281;28;20029;-77
2022/10/04 12:41:32;;;;;;;3.97;1.70;;;;;;;18.66;91.18;96756.78;4995683;28;20124;-74
2022/10/04 12:44:23;;;;;;;6.43;2.05;;;;;;;18.47;93.17;96757.47;4996945;28;20105;-76
2022/10/04 12:46:59;;;;;;;6.97;2.50;;;;;;;18.53;97.81;96757.53;4997221;28;20038;-76